sensor_id;sensor_type;location;lat;lon;timestamp;temperature;humidity
71994;DHT22;59861;50.268;8.648;2023-04-06T00:00:10;15.10;55.80
71994;DHT22;59861;50.268;8.648;2023-04-06T00:02:38;15.10;55.80
71994;DHT22;59861;50.268;8.648;2023-04-06T00:05:05;15.20;55.80
71994;DHT22;59861;50.268;8.648;2023-04-06T00:07:33;15.10;55.70
71994;DHT22;59861;50.268;8.648;2023-04-06T00:10:00;15.10;55.70
71994;DHT22;59861;50.268;8.648;2023-04-06T00:12:27;15.10;55.70
71994;DHT22;59861;50.268;8.648;2023-04-06T00:14:53;15.20;55.70
71994;DHT22;59861;50.268;8.648;2023-04-06T00:17:21;15.10;55.60
71994;DHT22;59861;50.268;8.648;2023-04-06T00:19:47;15.20;55.60
71994;DHT22;59861;50.268;8.648;2023-04-06T00:22:14;15.20;55.50
71994;DHT22;59861;50.268;8.648;2023-04-06T00:24:41;15.20;55.50
71994;DHT22;59861;50.268;8.648;2023-04-06T00:27:08;15.20;55.50
71994;DHT22;59861;50.268;8.648;2023-04-06T00:29:35;15.10;55.50
71994;DHT22;59861;50.268;8.648;2023-04-06T00:32:02;15.10;55.50
71994;DHT22;59861;50.268;8.648;2023-04-06T00:34:29;15.10;55.50
71994;DHT22;59861;50.268;8.648;2023-04-06T00:36:56;15.20;55.60
71994;DHT22;59861;50.268;8.648;2023-04-06T00:39:22;15.10;55.50
71994;DHT22;59861;50.268;8.648;2023-04-06T00:41:50;15.10;55.50
71994;DHT22;59861;50.268;8.648;2023-04-06T00:44:18;15.10;55.40
71994;DHT22;59861;50.268;8.648;2023-04-06T00:46:44;15.20;55.50
71994;DHT22;59861;50.268;8.648;2023-04-06T00:49:12;15.10;55.40
71994;DHT22;59861;50.268;8.648;2023-04-06T00:51:38;15.10;54.70
71994;DHT22;59861;50.268;8.648;2023-04-06T00:54:05;15.10;55.40
71994;DHT22;59861;50.268;8.648;2023-04-06T00:56:32;15.10;55.50
71994;DHT22;59861;50.268;8.648;2023-04-06T00:58:59;15.00;55.60
71994;DHT22;59861;50.268;8.648;2023-04-06T01:01:26;15.00;55.60
71994;DHT22;59861;50.268;8.648;2023-04-06T01:03:54;15.00;55.80
71994;DHT22;59861;50.268;8.648;2023-04-06T01:06:21;15.00;56.50
71994;DHT22;59861;50.268;8.648;2023-04-06T01:08:47;15.00;55.70
71994;DHT22;59861;50.268;8.648;2023-04-06T01:11:14;15.00;55.70
71994;DHT22;59861;50.268;8.648;2023-04-06T01:13:41;15.00;55.70
71994;DHT22;59861;50.268;8.648;2023-04-06T01:16:08;15.00;55.70
71994;DHT22;59861;50.268;8.648;2023-04-06T01:18:35;15.00;55.70
71994;DHT22;59861;50.268;8.648;2023-04-06T01:21:03;15.00;55.70
71994;DHT22;59861;50.268;8.648;2023-04-06T01:23:30;15.00;55.70
71994;DHT22;59861;50.268;8.648;2023-04-06T01:25:57;15.00;55.60
71994;DHT22;59861;50.268;8.648;2023-04-06T01:28:24;15.00;55.60
71994;DHT22;59861;50.268;8.648;2023-04-06T01:30:51;15.00;55.60
71994;DHT22;59861;50.268;8.648;2023-04-06T01:33:18;15.00;55.60
71994;DHT22;59861;50.268;8.648;2023-04-06T01:35:44;15.00;55.70
71994;DHT22;59861;50.268;8.648;2023-04-06T01:38:11;15.00;55.60
71994;DHT22;59861;50.268;8.648;2023-04-06T01:40:38;15.00;56.30
71994;DHT22;59861;50.268;8.648;2023-04-06T01:43:05;15.00;55.60
71994;DHT22;59861;50.268;8.648;2023-04-06T01:45:32;15.00;55.60
71994;DHT22;59861;50.268;8.648;2023-04-06T01:47:59;15.00;55.60
71994;DHT22;59861;50.268;8.648;2023-04-06T01:50:26;15.00;55.60
71994;DHT22;59861;50.268;8.648;2023-04-06T01:52:52;15.00;55.60
71994;DHT22;59861;50.268;8.648;2023-04-06T01:55:19;15.00;55.60
71994;DHT22;59861;50.268;8.648;2023-04-06T01:57:46;14.90;55.60
71994;DHT22;59861;50.268;8.648;2023-04-06T02:02:40;14.90;55.50
71994;DHT22;59861;50.268;8.648;2023-04-06T02:05:07;14.90;55.60
71994;DHT22;59861;50.268;8.648;2023-04-06T02:07:34;14.90;56.20
71994;DHT22;59861;50.268;8.648;2023-04-06T02:10:01;14.90;55.50
71994;DHT22;59861;50.268;8.648;2023-04-06T02:12:28;14.90;55.60
71994;DHT22;59861;50.268;8.648;2023-04-06T02:14:55;14.90;55.60
71994;DHT22;59861;50.268;8.648;2023-04-06T02:17:22;14.90;55.50
71994;DHT22;59861;50.268;8.648;2023-04-06T02:19:48;15.00;55.60
71994;DHT22;59861;50.268;8.648;2023-04-06T02:22:15;14.90;55.50
71994;DHT22;59861;50.268;8.648;2023-04-06T02:24:42;14.90;55.50
71994;DHT22;59861;50.268;8.648;2023-04-06T02:27:09;14.90;55.50
71994;DHT22;59861;50.268;8.648;2023-04-06T02:29:36;14.90;55.50
71994;DHT22;59861;50.268;8.648;2023-04-06T02:32:03;14.90;55.50
71994;DHT22;59861;50.268;8.648;2023-04-06T02:34:30;14.90;55.50
71994;DHT22;59861;50.268;8.648;2023-04-06T02:36:57;14.90;55.50
71994;DHT22;59861;50.268;8.648;2023-04-06T02:39:24;14.90;55.40
71994;DHT22;59861;50.268;8.648;2023-04-06T02:41:50;14.90;55.20
71994;DHT22;59861;50.268;8.648;2023-04-06T02:44:18;14.90;55.20
71994;DHT22;59861;50.268;8.648;2023-04-06T02:46:45;14.90;55.00
71994;DHT22;59861;50.268;8.648;2023-04-06T02:49:12;15.00;55.00
71994;DHT22;59861;50.268;8.648;2023-04-06T02:51:38;14.90;55.10
71994;DHT22;59861;50.268;8.648;2023-04-06T02:54:05;14.90;55.30
71994;DHT22;59861;50.268;8.648;2023-04-06T02:56:32;14.90;55.50
71994;DHT22;59861;50.268;8.648;2023-04-06T02:58:59;14.90;55.50
71994;DHT22;59861;50.268;8.648;2023-04-06T03:01:26;14.90;55.50
71994;DHT22;59861;50.268;8.648;2023-04-06T03:03:53;14.90;55.50
71994;DHT22;59861;50.268;8.648;2023-04-06T03:06:20;14.90;55.40
71994;DHT22;59861;50.268;8.648;2023-04-06T03:08:46;14.90;55.40
71994;DHT22;59861;50.268;8.648;2023-04-06T03:11:13;14.90;55.40
71994;DHT22;59861;50.268;8.648;2023-04-06T03:13:40;14.90;55.50
71994;DHT22;59861;50.268;8.648;2023-04-06T03:16:07;14.90;55.40
71994;DHT22;59861;50.268;8.648;2023-04-06T03:18:34;14.90;55.50
71994;DHT22;59861;50.268;8.648;2023-04-06T03:21:00;14.80;55.30
71994;DHT22;59861;50.268;8.648;2023-04-06T03:23:27;14.80;55.40
71994;DHT22;59861;50.268;8.648;2023-04-06T03:25:54;14.90;56.10
71994;DHT22;59861;50.268;8.648;2023-04-06T03:28:21;14.80;55.40
71994;DHT22;59861;50.268;8.648;2023-04-06T03:30:48;14.80;55.30
71994;DHT22;59861;50.268;8.648;2023-04-06T03:33:15;14.80;55.30
71994;DHT22;59861;50.268;8.648;2023-04-06T03:35:42;14.80;55.30
71994;DHT22;59861;50.268;8.648;2023-04-06T03:38:09;14.80;55.40
71994;DHT22;59861;50.268;8.648;2023-04-06T03:40:35;14.80;55.30
71994;DHT22;59861;50.268;8.648;2023-04-06T03:43:03;14.80;55.40
71994;DHT22;59861;50.268;8.648;2023-04-06T03:45:30;14.80;55.30
71994;DHT22;59861;50.268;8.648;2023-04-06T03:47:57;14.80;55.30
71994;DHT22;59861;50.268;8.648;2023-04-06T03:50:23;14.80;55.40
71994;DHT22;59861;50.268;8.648;2023-04-06T03:52:51;14.80;55.40
71994;DHT22;59861;50.268;8.648;2023-04-06T03:55:17;14.80;55.40
71994;DHT22;59861;50.268;8.648;2023-04-06T03:57:44;14.80;55.40
71994;DHT22;59861;50.268;8.648;2023-04-06T04:00:11;14.80;55.30
71994;DHT22;59861;50.268;8.648;2023-04-06T04:02:38;14.80;55.40
71994;DHT22;59861;50.268;8.648;2023-04-06T04:05:05;14.80;55.40
71994;DHT22;59861;50.268;8.648;2023-04-06T04:07:32;14.80;55.40
71994;DHT22;59861;50.268;8.648;2023-04-06T04:09:59;14.80;55.30
71994;DHT22;59861;50.268;8.648;2023-04-06T04:12:26;14.80;55.40
71994;DHT22;59861;50.268;8.648;2023-04-06T04:14:53;14.80;55.40
71994;DHT22;59861;50.268;8.648;2023-04-06T04:17:19;14.80;55.30
71994;DHT22;59861;50.268;8.648;2023-04-06T04:19:46;14.80;55.30
71994;DHT22;59861;50.268;8.648;2023-04-06T04:22:13;14.80;55.30
71994;DHT22;59861;50.268;8.648;2023-04-06T04:24:40;14.80;55.20
71994;DHT22;59861;50.268;8.648;2023-04-06T04:27:06;14.80;55.20
71994;DHT22;59861;50.268;8.648;2023-04-06T04:29:34;14.80;55.20
71994;DHT22;59861;50.268;8.648;2023-04-06T04:32:00;14.80;55.30
71994;DHT22;59861;50.268;8.648;2023-04-06T04:34:27;14.80;55.20
71994;DHT22;59861;50.268;8.648;2023-04-06T04:36:54;14.80;55.80
71994;DHT22;59861;50.268;8.648;2023-04-06T04:39:21;14.80;55.10
71994;DHT22;59861;50.268;8.648;2023-04-06T04:41:48;14.80;55.10
71994;DHT22;59861;50.268;8.648;2023-04-06T04:44:15;14.80;55.10
71994;DHT22;59861;50.268;8.648;2023-04-06T04:46:41;14.80;55.20
71994;DHT22;59861;50.268;8.648;2023-04-06T04:49:08;14.80;55.10
71994;DHT22;59861;50.268;8.648;2023-04-06T04:51:35;14.80;55.20
71994;DHT22;59861;50.268;8.648;2023-04-06T04:54:02;14.80;55.10
71994;DHT22;59861;50.268;8.648;2023-04-06T04:56:29;14.80;55.10
71994;DHT22;59861;50.268;8.648;2023-04-06T04:58:56;14.80;55.00
71994;DHT22;59861;50.268;8.648;2023-04-06T05:01:23;14.80;55.00
71994;DHT22;59861;50.268;8.648;2023-04-06T05:03:49;14.80;55.00
71994;DHT22;59861;50.268;8.648;2023-04-06T05:06:16;14.80;55.10
71994;DHT22;59861;50.268;8.648;2023-04-06T05:08:44;14.80;55.00
71994;DHT22;59861;50.268;8.648;2023-04-06T05:11:11;14.80;55.00
71994;DHT22;59861;50.268;8.648;2023-04-06T05:13:38;14.80;55.10
71994;DHT22;59861;50.268;8.648;2023-04-06T05:16:05;14.80;55.00
71994;DHT22;59861;50.268;8.648;2023-04-06T05:18:32;14.80;55.00
71994;DHT22;59861;50.268;8.648;2023-04-06T05:20:59;14.80;55.00
71994;DHT22;59861;50.268;8.648;2023-04-06T05:23:25;14.80;55.10
71994;DHT22;59861;50.268;8.648;2023-04-06T05:25:52;14.80;55.00
71994;DHT22;59861;50.268;8.648;2023-04-06T05:28:19;14.80;55.00
71994;DHT22;59861;50.268;8.648;2023-04-06T05:30:46;14.80;55.10
71994;DHT22;59861;50.268;8.648;2023-04-06T05:33:13;14.80;55.00
71994;DHT22;59861;50.268;8.648;2023-04-06T05:35:39;14.80;55.10
71994;DHT22;59861;50.268;8.648;2023-04-06T05:38:07;14.80;55.00
71994;DHT22;59861;50.268;8.648;2023-04-06T05:40:36;14.80;55.10
71994;DHT22;59861;50.268;8.648;2023-04-06T05:43:04;14.80;55.00
71994;DHT22;59861;50.268;8.648;2023-04-06T05:45:30;14.80;55.00
71994;DHT22;59861;50.268;8.648;2023-04-06T05:47:57;14.80;55.10
71994;DHT22;59861;50.268;8.648;2023-04-06T05:50:24;14.70;55.00
71994;DHT22;59861;50.268;8.648;2023-04-06T05:52:51;14.70;55.10
71994;DHT22;59861;50.268;8.648;2023-04-06T05:55:18;14.70;55.00
71994;DHT22;59861;50.268;8.648;2023-04-06T05:57:44;14.80;55.00
71994;DHT22;59861;50.268;8.648;2023-04-06T06:00:11;14.80;55.00
71994;DHT22;59861;50.268;8.648;2023-04-06T06:02:38;14.80;55.00
71994;DHT22;59861;50.268;8.648;2023-04-06T06:05:07;14.80;55.00
71994;DHT22;59861;50.268;8.648;2023-04-06T06:07:34;14.80;55.00
71994;DHT22;59861;50.268;8.648;2023-04-06T06:10:01;14.80;55.00
71994;DHT22;59861;50.268;8.648;2023-04-06T06:12:27;14.70;55.00
71994;DHT22;59861;50.268;8.648;2023-04-06T06:14:54;14.80;55.00
71994;DHT22;59861;50.268;8.648;2023-04-06T06:17:21;14.80;55.00
71994;DHT22;59861;50.268;8.648;2023-04-06T06:19:48;14.80;55.00
71994;DHT22;59861;50.268;8.648;2023-04-06T06:22:15;14.80;55.00
71994;DHT22;59861;50.268;8.648;2023-04-06T06:24:41;14.80;54.90
71994;DHT22;59861;50.268;8.648;2023-04-06T06:27:08;14.80;55.00
71994;DHT22;59861;50.268;8.648;2023-04-06T06:29:35;14.80;55.00
71994;DHT22;59861;50.268;8.648;2023-04-06T06:32:02;14.80;54.80
71994;DHT22;59861;50.268;8.648;2023-04-06T06:34:29;14.80;54.90
71994;DHT22;59861;50.268;8.648;2023-04-06T06:36:55;14.80;54.80
71994;DHT22;59861;50.268;8.648;2023-04-06T06:39:22;14.80;54.80
71994;DHT22;59861;50.268;8.648;2023-04-06T06:41:49;14.80;54.70
71994;DHT22;59861;50.268;8.648;2023-04-06T06:44:16;14.70;52.40
71994;DHT22;59861;50.268;8.648;2023-04-06T06:46:43;14.70;53.00
71994;DHT22;59861;50.268;8.648;2023-04-06T06:49:10;14.70;53.60
71994;DHT22;59861;50.268;8.648;2023-04-06T06:51:38;14.70;53.70
71994;DHT22;59861;50.268;8.648;2023-04-06T06:54:05;14.70;54.00
71994;DHT22;59861;50.268;8.648;2023-04-06T06:56:32;14.70;54.00
71994;DHT22;59861;50.268;8.648;2023-04-06T06:58:58;14.70;54.60
71994;DHT22;59861;50.268;8.648;2023-04-06T07:01:25;14.70;54.10
71994;DHT22;59861;50.268;8.648;2023-04-06T07:03:52;14.70;54.00
71994;DHT22;59861;50.268;8.648;2023-04-06T07:06:19;14.80;54.10
71994;DHT22;59861;50.268;8.648;2023-04-06T07:08:46;14.80;54.00
71994;DHT22;59861;50.268;8.648;2023-04-06T07:11:13;14.90;53.80
71994;DHT22;59861;50.268;8.648;2023-04-06T07:13:40;14.90;53.80
71994;DHT22;59861;50.268;8.648;2023-04-06T07:16:07;14.90;53.80
71994;DHT22;59861;50.268;8.648;2023-04-06T07:18:34;14.90;53.80
71994;DHT22;59861;50.268;8.648;2023-04-06T07:21:01;14.90;53.70
71994;DHT22;59861;50.268;8.648;2023-04-06T07:23:27;14.90;53.70
71994;DHT22;59861;50.268;8.648;2023-04-06T07:25:54;14.90;53.70
71994;DHT22;59861;50.268;8.648;2023-04-06T07:28:21;15.00;53.80
71994;DHT22;59861;50.268;8.648;2023-04-06T07:30:48;14.50;43.30
71994;DHT22;59861;50.268;8.648;2023-04-06T07:33:14;13.30;42.50
71994;DHT22;59861;50.268;8.648;2023-04-06T07:38:08;11.90;42.70
71994;DHT22;59861;50.268;8.648;2023-04-06T07:40:35;12.10;46.30
71994;DHT22;59861;50.268;8.648;2023-04-06T07:43:01;12.70;50.10
71994;DHT22;59861;50.268;8.648;2023-04-06T07:45:28;13.30;51.30
71994;DHT22;59861;50.268;8.648;2023-04-06T07:47:55;13.70;51.40
71994;DHT22;59861;50.268;8.648;2023-04-06T07:50:22;13.90;51.70
71994;DHT22;59861;50.268;8.648;2023-04-06T07:52:49;14.10;51.20
71994;DHT22;59861;50.268;8.648;2023-04-06T07:55:16;14.30;51.10
71994;DHT22;59861;50.268;8.648;2023-04-06T07:57:42;14.40;51.30
71994;DHT22;59861;50.268;8.648;2023-04-06T08:00:09;14.50;51.30
71994;DHT22;59861;50.268;8.648;2023-04-06T08:02:37;14.70;51.50
71994;DHT22;59861;50.268;8.648;2023-04-06T08:05:04;14.70;52.00
71994;DHT22;59861;50.268;8.648;2023-04-06T08:07:31;14.80;52.50
71994;DHT22;59861;50.268;8.648;2023-04-06T08:09:58;14.90;52.80
71994;DHT22;59861;50.268;8.648;2023-04-06T08:12:25;14.90;53.10
71994;DHT22;59861;50.268;8.648;2023-04-06T08:14:52;14.90;53.20
71994;DHT22;59861;50.268;8.648;2023-04-06T08:17:19;15.00;53.50
71994;DHT22;59861;50.268;8.648;2023-04-06T08:19:46;15.00;53.80
71994;DHT22;59861;50.268;8.648;2023-04-06T08:22:12;15.20;53.90
71994;DHT22;59861;50.268;8.648;2023-04-06T08:24:39;15.20;53.80
71994;DHT22;59861;50.268;8.648;2023-04-06T08:27:06;15.30;54.10
71994;DHT22;59861;50.268;8.648;2023-04-06T08:29:33;15.30;54.30
71994;DHT22;59861;50.268;8.648;2023-04-06T08:32:00;15.30;54.60
71994;DHT22;59861;50.268;8.648;2023-04-06T08:34:28;15.40;54.70
71994;DHT22;59861;50.268;8.648;2023-04-06T08:36:55;15.40;54.90
71994;DHT22;59861;50.268;8.648;2023-04-06T08:39:22;15.40;55.20
71994;DHT22;59861;50.268;8.648;2023-04-06T08:41:51;15.40;55.20
71994;DHT22;59861;50.268;8.648;2023-04-06T08:44:18;15.40;55.40
71994;DHT22;59861;50.268;8.648;2023-04-06T08:46:45;15.40;55.60
71994;DHT22;59861;50.268;8.648;2023-04-06T08:49:12;15.50;55.60
71994;DHT22;59861;50.268;8.648;2023-04-06T08:51:39;15.50;55.70
71994;DHT22;59861;50.268;8.648;2023-04-06T08:54:07;15.50;55.80
71994;DHT22;59861;50.268;8.648;2023-04-06T08:56:36;15.60;56.60
71994;DHT22;59861;50.268;8.648;2023-04-06T08:59:02;15.60;56.00
71994;DHT22;59861;50.268;8.648;2023-04-06T09:01:29;15.70;56.00
71994;DHT22;59861;50.268;8.648;2023-04-06T09:03:58;15.70;55.90
71994;DHT22;59861;50.268;8.648;2023-04-06T09:06:26;15.70;56.10
71994;DHT22;59861;50.268;8.648;2023-04-06T09:08:53;15.70;56.30
71994;DHT22;59861;50.268;8.648;2023-04-06T09:11:20;15.80;56.60
71994;DHT22;59861;50.268;8.648;2023-04-06T09:13:53;15.80;56.20
71994;DHT22;59861;50.268;8.648;2023-04-06T09:16:16;15.80;55.90
71994;DHT22;59861;50.268;8.648;2023-04-06T09:18:43;15.70;55.80
71994;DHT22;59861;50.268;8.648;2023-04-06T09:21:10;15.70;55.90
71994;DHT22;59861;50.268;8.648;2023-04-06T09:23:37;15.70;55.70
71994;DHT22;59861;50.268;8.648;2023-04-06T09:26:10;15.70;55.70
71994;DHT22;59861;50.268;8.648;2023-04-06T09:31:11;15.60;55.60
71994;DHT22;59861;50.268;8.648;2023-04-06T09:33:40;15.70;55.90
71994;DHT22;59861;50.268;8.648;2023-04-06T09:36:06;15.70;56.00
71994;DHT22;59861;50.268;8.648;2023-04-06T09:38:50;15.80;56.20
71994;DHT22;59861;50.268;8.648;2023-04-06T09:41:04;15.90;56.20
71994;DHT22;59861;50.268;8.648;2023-04-06T09:43:31;15.80;55.90
71994;DHT22;59861;50.268;8.648;2023-04-06T09:45:58;15.80;55.40
71994;DHT22;59861;50.268;8.648;2023-04-06T09:51:03;15.70;55.30
71994;DHT22;59861;50.268;8.648;2023-04-06T09:53:30;15.70;55.30
71994;DHT22;59861;50.268;8.648;2023-04-06T09:55:57;15.70;55.40
71994;DHT22;59861;50.268;8.648;2023-04-06T09:58:26;15.70;55.50
71994;DHT22;59861;50.268;8.648;2023-04-06T10:01:01;15.80;55.80
71994;DHT22;59861;50.268;8.648;2023-04-06T10:06:13;15.80;56.30
71994;DHT22;59861;50.268;8.648;2023-04-06T10:08:40;15.90;56.40
71994;DHT22;59861;50.268;8.648;2023-04-06T10:11:08;16.00;56.40
71994;DHT22;59861;50.268;8.648;2023-04-06T10:13:37;16.00;56.20
71994;DHT22;59861;50.268;8.648;2023-04-06T10:16:03;16.00;56.30
71994;DHT22;59861;50.268;8.648;2023-04-06T10:18:30;16.00;56.50
71994;DHT22;59861;50.268;8.648;2023-04-06T10:21:03;16.00;56.60
71994;DHT22;59861;50.268;8.648;2023-04-06T10:23:33;16.10;56.80
71994;DHT22;59861;50.268;8.648;2023-04-06T10:26:00;16.10;56.80
71994;DHT22;59861;50.268;8.648;2023-04-06T10:28:35;16.10;56.90
71994;DHT22;59861;50.268;8.648;2023-04-06T10:33:27;16.10;55.80
71994;DHT22;59861;50.268;8.648;2023-04-06T10:35:54;16.10;56.20
71994;DHT22;59861;50.268;8.648;2023-04-06T10:38:21;16.00;55.90
71994;DHT22;59861;50.268;8.648;2023-04-06T10:40:50;16.00;55.80
71994;DHT22;59861;50.268;8.648;2023-04-06T10:43:20;16.00;55.90
71994;DHT22;59861;50.268;8.648;2023-04-06T10:45:56;16.00;55.80
71994;DHT22;59861;50.268;8.648;2023-04-06T10:48:23;16.00;55.80
71994;DHT22;59861;50.268;8.648;2023-04-06T10:50:51;16.00;55.80
71994;DHT22;59861;50.268;8.648;2023-04-06T10:53:22;16.00;55.80
71994;DHT22;59861;50.268;8.648;2023-04-06T10:55:50;16.00;55.80
71994;DHT22;59861;50.268;8.648;2023-04-06T10:58:17;16.00;55.90
71994;DHT22;59861;50.268;8.648;2023-04-06T11:00:47;16.00;55.90
71994;DHT22;59861;50.268;8.648;2023-04-06T11:03:14;16.00;56.00
71994;DHT22;59861;50.268;8.648;2023-04-06T11:05:45;16.10;56.00
71994;DHT22;59861;50.268;8.648;2023-04-06T11:11:05;16.20;55.60
71994;DHT22;59861;50.268;8.648;2023-04-06T11:13:42;16.20;55.70
71994;DHT22;59861;50.268;8.648;2023-04-06T11:16:19;16.30;55.70
71994;DHT22;59861;50.268;8.648;2023-04-06T11:18:47;16.30;55.60
71994;DHT22;59861;50.268;8.648;2023-04-06T11:21:14;16.30;55.50
71994;DHT22;59861;50.268;8.648;2023-04-06T11:23:40;16.20;55.60
71994;DHT22;59861;50.268;8.648;2023-04-06T11:26:13;16.20;55.80
71994;DHT22;59861;50.268;8.648;2023-04-06T11:28:41;16.20;55.80
71994;DHT22;59861;50.268;8.648;2023-04-06T11:31:09;16.10;55.80
71994;DHT22;59861;50.268;8.648;2023-04-06T11:33:37;16.10;55.90
71994;DHT22;59861;50.268;8.648;2023-04-06T11:36:04;16.10;55.90
71994;DHT22;59861;50.268;8.648;2023-04-06T11:38:31;16.10;55.90
71994;DHT22;59861;50.268;8.648;2023-04-06T11:40:58;16.10;55.90
71994;DHT22;59861;50.268;8.648;2023-04-06T11:43:27;16.10;55.90
71994;DHT22;59861;50.268;8.648;2023-04-06T11:45:59;16.10;56.00
71994;DHT22;59861;50.268;8.648;2023-04-06T11:48:22;16.20;56.00
71994;DHT22;59861;50.268;8.648;2023-04-06T11:50:54;16.20;55.80
71994;DHT22;59861;50.268;8.648;2023-04-06T11:53:19;16.20;55.80
71994;DHT22;59861;50.268;8.648;2023-04-06T11:55:46;16.20;56.50
71994;DHT22;59861;50.268;8.648;2023-04-06T11:58:13;16.20;55.80
71994;DHT22;59861;50.268;8.648;2023-04-06T12:00:39;16.20;55.70
71994;DHT22;59861;50.268;8.648;2023-04-06T12:03:08;16.20;55.70
71994;DHT22;59861;50.268;8.648;2023-04-06T12:05:35;16.20;55.60
71994;DHT22;59861;50.268;8.648;2023-04-06T12:08:02;16.20;55.70
71994;DHT22;59861;50.268;8.648;2023-04-06T12:10:29;16.30;56.00
71994;DHT22;59861;50.268;8.648;2023-04-06T12:12:55;16.30;56.10
71994;DHT22;59861;50.268;8.648;2023-04-06T12:15:22;16.30;56.10
71994;DHT22;59861;50.268;8.648;2023-04-06T12:17:49;16.40;56.10
71994;DHT22;59861;50.268;8.648;2023-04-06T12:20:16;16.40;56.00
71994;DHT22;59861;50.268;8.648;2023-04-06T12:22:43;16.40;56.10
71994;DHT22;59861;50.268;8.648;2023-04-06T12:25:10;16.50;56.60
71994;DHT22;59861;50.268;8.648;2023-04-06T12:27:37;16.50;56.10
71994;DHT22;59861;50.268;8.648;2023-04-06T12:30:04;16.60;56.30
71994;DHT22;59861;50.268;8.648;2023-04-06T12:32:32;16.50;56.10
71994;DHT22;59861;50.268;8.648;2023-04-06T12:34:58;16.60;56.20
71994;DHT22;59861;50.268;8.648;2023-04-06T12:37:26;16.60;56.40
71994;DHT22;59861;50.268;8.648;2023-04-06T12:39:53;16.70;56.30
71994;DHT22;59861;50.268;8.648;2023-04-06T12:42:20;16.70;56.30
71994;DHT22;59861;50.268;8.648;2023-04-06T12:44:47;16.70;56.40
71994;DHT22;59861;50.268;8.648;2023-04-06T12:47:14;16.70;56.50
71994;DHT22;59861;50.268;8.648;2023-04-06T12:49:41;16.80;56.50
71994;DHT22;59861;50.268;8.648;2023-04-06T12:52:10;16.80;56.50
71994;DHT22;59861;50.268;8.648;2023-04-06T12:54:36;16.80;57.10
71994;DHT22;59861;50.268;8.648;2023-04-06T12:57:03;16.80;56.50
71994;DHT22;59861;50.268;8.648;2023-04-06T12:59:30;16.80;56.60
71994;DHT22;59861;50.268;8.648;2023-04-06T13:01:59;16.90;56.50
71994;DHT22;59861;50.268;8.648;2023-04-06T13:04:26;16.90;56.70
71994;DHT22;59861;50.268;8.648;2023-04-06T13:06:52;16.80;56.50
71994;DHT22;59861;50.268;8.648;2023-04-06T13:09:19;16.90;56.50
71994;DHT22;59861;50.268;8.648;2023-04-06T13:11:46;16.90;56.60
71994;DHT22;59861;50.268;8.648;2023-04-06T13:14:13;16.90;56.60
71994;DHT22;59861;50.268;8.648;2023-04-06T13:16:40;16.80;56.60
71994;DHT22;59861;50.268;8.648;2023-04-06T13:19:06;16.60;56.20
71994;DHT22;59861;50.268;8.648;2023-04-06T13:21:33;16.60;56.30
71994;DHT22;59861;50.268;8.648;2023-04-06T13:24:00;16.50;56.20
71994;DHT22;59861;50.268;8.648;2023-04-06T13:26:27;16.50;56.20
71994;DHT22;59861;50.268;8.648;2023-04-06T13:28:54;16.50;56.10
71994;DHT22;59861;50.268;8.648;2023-04-06T13:31:22;16.50;56.30
71994;DHT22;59861;50.268;8.648;2023-04-06T13:33:49;16.50;56.30
71994;DHT22;59861;50.268;8.648;2023-04-06T13:38:42;16.60;55.30
71994;DHT22;59861;50.268;8.648;2023-04-06T13:41:09;16.70;56.10
71994;DHT22;59861;50.268;8.648;2023-04-06T13:43:36;16.70;56.70
71994;DHT22;59861;50.268;8.648;2023-04-06T13:46:03;16.80;56.10
71994;DHT22;59861;50.268;8.648;2023-04-06T13:48:29;16.80;56.00
71994;DHT22;59861;50.268;8.648;2023-04-06T13:50:57;16.90;56.00
71994;DHT22;59861;50.268;8.648;2023-04-06T13:53:24;16.90;56.00
71994;DHT22;59861;50.268;8.648;2023-04-06T13:55:54;16.90;56.10
71994;DHT22;59861;50.268;8.648;2023-04-06T13:58:21;17.00;56.20
71994;DHT22;59861;50.268;8.648;2023-04-06T14:00:48;17.00;56.10
71994;DHT22;59861;50.268;8.648;2023-04-06T14:03:15;17.00;56.10
71994;DHT22;59861;50.268;8.648;2023-04-06T14:05:42;17.00;56.10
71994;DHT22;59861;50.268;8.648;2023-04-06T14:08:09;17.00;56.20
71994;DHT22;59861;50.268;8.648;2023-04-06T14:10:39;17.10;56.20
71994;DHT22;59861;50.268;8.648;2023-04-06T14:13:08;17.10;56.10
71994;DHT22;59861;50.268;8.648;2023-04-06T14:15:36;17.10;56.10
71994;DHT22;59861;50.268;8.648;2023-04-06T14:18:03;17.10;56.20
71994;DHT22;59861;50.268;8.648;2023-04-06T14:20:32;17.10;56.20
71994;DHT22;59861;50.268;8.648;2023-04-06T14:23:04;17.10;56.30
71994;DHT22;59861;50.268;8.648;2023-04-06T14:25:28;17.10;56.30
71994;DHT22;59861;50.268;8.648;2023-04-06T14:27:56;17.10;56.40
71994;DHT22;59861;50.268;8.648;2023-04-06T14:30:23;17.10;56.40
71994;DHT22;59861;50.268;8.648;2023-04-06T14:32:50;17.20;56.40
71994;DHT22;59861;50.268;8.648;2023-04-06T14:35:17;17.20;56.50
71994;DHT22;59861;50.268;8.648;2023-04-06T14:37:44;17.20;56.50
71994;DHT22;59861;50.268;8.648;2023-04-06T14:40:10;17.20;56.40
71994;DHT22;59861;50.268;8.648;2023-04-06T14:42:37;17.30;56.40
71994;DHT22;59861;50.268;8.648;2023-04-06T14:45:04;17.20;56.40
71994;DHT22;59861;50.268;8.648;2023-04-06T14:47:31;17.30;56.40
71994;DHT22;59861;50.268;8.648;2023-04-06T14:49:58;17.20;56.50
71994;DHT22;59861;50.268;8.648;2023-04-06T14:52:25;17.30;56.60
71994;DHT22;59861;50.268;8.648;2023-04-06T14:54:52;17.20;56.60
71994;DHT22;59861;50.268;8.648;2023-04-06T14:57:18;17.20;56.90
71994;DHT22;59861;50.268;8.648;2023-04-06T14:59:45;17.30;56.80
71994;DHT22;59861;50.268;8.648;2023-04-06T15:02:12;17.30;56.70
71994;DHT22;59861;50.268;8.648;2023-04-06T15:04:39;17.40;56.60
71994;DHT22;59861;50.268;8.648;2023-04-06T15:07:06;17.30;56.60
71994;DHT22;59861;50.268;8.648;2023-04-06T15:09:32;17.40;56.60
71994;DHT22;59861;50.268;8.648;2023-04-06T15:11:59;17.30;56.50
71994;DHT22;59861;50.268;8.648;2023-04-06T15:14:26;17.40;56.40
71994;DHT22;59861;50.268;8.648;2023-04-06T15:16:53;17.30;56.50
71994;DHT22;59861;50.268;8.648;2023-04-06T15:19:20;17.30;56.60
71994;DHT22;59861;50.268;8.648;2023-04-06T15:21:56;17.30;56.60
71994;DHT22;59861;50.268;8.648;2023-04-06T15:24:23;17.30;56.60
71994;DHT22;59861;50.268;8.648;2023-04-06T15:26:50;17.40;56.60
71994;DHT22;59861;50.268;8.648;2023-04-06T15:29:16;17.40;56.60
71994;DHT22;59861;50.268;8.648;2023-04-06T15:31:43;17.30;56.60
71994;DHT22;59861;50.268;8.648;2023-04-06T15:34:10;17.30;56.70
71994;DHT22;59861;50.268;8.648;2023-04-06T15:36:37;17.30;56.80
71994;DHT22;59861;50.268;8.648;2023-04-06T15:39:04;17.20;57.10
71994;DHT22;59861;50.268;8.648;2023-04-06T15:41:33;17.20;57.20
71994;DHT22;59861;50.268;8.648;2023-04-06T15:44:00;17.10;57.20
71994;DHT22;59861;50.268;8.648;2023-04-06T15:46:27;17.00;56.50
71994;DHT22;59861;50.268;8.648;2023-04-06T15:48:54;17.00;56.40